^^
Datos históricos de la estación: Murcia-Puente Tocinos
Diario Informe para Enero 25, 2019 Unidades:  Ingés    Métrico   Ambas
Diario Semanal Mensual Anual
  Máxima: Mínima: Promedio:
Temperatura: 76.5 °F 57 °F 65.3 °F
Punto de rocio: 54.1 °F 46.6 °F 49.6 °F
Humedad: 72.2% 39.9% 58%
Velocidad viento: 8.1mph 0mph 4mph
Racha viento: 14mph - -
Viento- - SSO
Presión: 30.2 in 30.1 in -
Precipitación: 0 in    
 
 
Tabla de datos para Enero 25, 2019
Hora Temperatura Punto de rocio Presión Viento Velocidad viento Racha viento Humedad Intensidad lluvia(por hora) Nubes
00:04 64.2 °F 46.8 °F 30.2 in OSO 5.2 mph 9.2 mph 53% 0 in
00:09 64.2 °F 46.8 °F 30.2 in Oeste 5.4 mph 9.2 mph 53% 0 in
00:14 64 °F 46.6 °F 30.2 in Oeste 5.3 mph 9 mph 53.1% 0 in
00:19 63.9 °F 46.9 °F 30.2 in OSO 5.2 mph 9.2 mph 54% 0 in
00:24 63.7 °F 46.9 °F 30.2 in OSO 4.3 mph 7 mph 54.5% 0 in
00:29 63.1 °F 47.1 °F 30.2 in OSO 4 mph 9.2 mph 55.6% 0 in
00:34 63 °F 47.1 °F 30.2 in Sur 4.5 mph 9 mph 56.5% 0 in
00:39 62.4 °F 47.5 °F 30.2 in SE 4.7 mph 9.7 mph 58% 0 in
00:44 61.7 °F 47.5 °F 30.2 in SE 4.7 mph 10 mph 59.7% 0 in
00:49 61.2 °F 47.5 °F 30.2 in Sur 4.7 mph 10.4 mph 60.5% 0 in
00:54 61.2 °F 47.1 °F 30.2 in SSE 5.8 mph 14 mph 59.7% 0 in
00:59 61.5 °F 47.1 °F 30.2 in Sur 6.2 mph 14 mph 59% 0 in
01:04 61.5 °F 47.1 °F 30.2 in SSO 7.6 mph 12 mph 59% 0 in
01:09 61.9 °F 46.9 °F 30.2 in SSO 8.1 mph 12 mph 58.1% 0 in
01:14 61.9 °F 47.3 °F 30.2 in SO 7.2 mph 12 mph 58.8% 0 in
01:19 61.7 °F 47.3 °F 30.2 in SO 6.9 mph 12 mph 58.9% 0 in
01:24 62.1 °F 46.9 °F 30.2 in SO 6.2 mph 11.5 mph 58% 0 in
01:29 62.1 °F 47.1 °F 30.2 in SSO 5.9 mph 12 mph 58% 0 in
01:34 62.2 °F 47.3 °F 30.2 in SSE 5.4 mph 9 mph 58% 0 in
01:39 61.7 °F 47.1 °F 30.2 in Sur 5.2 mph 9 mph 58.8% 0 in
01:44 61.3 °F 47.1 °F 30.2 in SSO 5.3 mph 8.5 mph 59.6% 0 in
01:49 61.2 °F 47.3 °F 30.2 in SO 5.4 mph 9 mph 60% 0 in
01:54 61.3 °F 47.1 °F 30.2 in SO 5.3 mph 8 mph 59.5% 0 in
01:59 61.3 °F 46.9 °F 30.2 in SSO 5.2 mph 9.2 mph 59% 0 in
02:04 61.5 °F 47.1 °F 30.2 in SO 5.2 mph 9.2 mph 59% 0 in
02:09 61.5 °F 47.1 °F 30.2 in SSO 5.2 mph 9.2 mph 59% 0 in
02:14 61.7 °F 46.9 °F 30.2 in SSO 5.3 mph 9 mph 58.3% 0 in
02:19 61.9 °F 46.9 °F 30.2 in SO 5.4 mph 8.1 mph 58% 0 in
02:24 61.7 °F 46.8 °F 30.2 in SO 5.3 mph 8.1 mph 58% 0 in
02:29 61.7 °F 46.8 °F 30.2 in SSO 5.2 mph 9.7 mph 58% 0 in
02:34 61.5 °F 46.9 °F 30.2 in SSO 5.9 mph 10 mph 58.8% 0 in
02:39 61.2 °F 47.1 °F 30.2 in SSO 6.2 mph 9.2 mph 59.7% 0 in
02:44 60.8 °F 46.9 °F 30.2 in SO 5.6 mph 9 mph 60.1% 0 in
02:49 60.6 °F 47.1 °F 30.2 in SSO 5.4 mph 8 mph 61% 0 in
02:54 60.4 °F 46.9 °F 30.2 in Sur 3.7 mph 5.2 mph 61% 0 in
02:59 60.4 °F 47.1 °F 30.2 in SSE 3.1 mph 6.9 mph 61.6% 0 in
03:04 60.3 °F 47.1 °F 30.2 in Sur 3.8 mph 7 mph 62% 0 in
03:09 59.9 °F 47.3 °F 30.2 in SSO 4 mph 7.6 mph 62.9% 0 in
03:14 59.7 °F 47.1 °F 30.2 in SO 4.5 mph 8.1 mph 63.2% 0 in
03:19 59.5 °F 47.3 °F 30.2 in SSO 4.7 mph 8 mph 64% 0 in
03:24 59.5 °F 47.3 °F 30.2 in SSO 3.9 mph 8.1 mph 64% 0 in
03:29 59.5 °F 47.3 °F 30.2 in SO 3.6 mph 8 mph 64% 0 in
03:34 59.5 °F 47.3 °F 30.2 in SSO 4.4 mph 7 mph 63.9% 0 in
03:39 59.7 °F 47.3 °F 30.2 in SSE 4.7 mph 6 mph 63.7% 0 in
03:44 59.5 °F 47.5 °F 30.2 in SE 3.9 mph 7.4 mph 64.3% 0 in
03:49 59 °F 47.5 °F 30.2 in SSE 3.6 mph 7 mph 65.4% 0 in
03:54 58.6 °F 47.3 °F 30.2 in SSO 4.4 mph 7 mph 66% 0 in
03:59 58.6 °F 47.3 °F 30.2 in SSO 4.7 mph 8.5 mph 66% 0 in
04:04 58.8 °F 47.5 °F 30.2 in SSO 5.1 mph 9 mph 66% 0 in
04:09 58.8 °F 47.5 °F 30.2 in SO 5.2 mph 7 mph 66% 0 in
04:14 58.8 °F 47.3 °F 30.2 in SO 4.5 mph 8.1 mph 65.7% 0 in
04:19 59 °F 47.3 °F 30.2 in SSO 4.3 mph 8.1 mph 65% 0 in
04:24 59.4 °F 47.5 °F 30.2 in SO 4.6 mph 7 mph 64.9% 0 in
04:29 59.4 °F 47.1 °F 30.2 in SO 4.7 mph 6.9 mph 64% 0 in
04:34 59.5 °F 47.3 °F 30.2 in SO 4.2 mph 7 mph 64% 0 in
04:39 59.5 °F 47.3 °F 30.2 in SO 4 mph 9.2 mph 63.8% 0 in
04:44 59.5 °F 46.9 °F 30.2 in SO 5 mph 9 mph 63% 0 in
04:49 59.7 °F 47.1 °F 30.2 in SO 5.4 mph 9.7 mph 63% 0 in
04:54 59.9 °F 47.1 °F 30.2 in SO 5.3 mph 10.4 mph 62.8% 0 in
04:59 60.1 °F 46.9 °F 30.1 in SSO 5.2 mph 10 mph 62% 0 in
05:04 60.1 °F 46.9 °F 30.1 in SSO 5.2 mph 8 mph 62% 0 in
05:09 60.1 °F 47.1 °F 30.2 in SSO 5.2 mph 8.1 mph 62.5% 0 in
05:14 59.7 °F 47.1 °F 30.2 in SSO 4.8 mph 10.4 mph 63% 0 in
05:19 59.5 °F 46.9 °F 30.2 in SSO 4.7 mph 11.5 mph 63% 0 in
05:24 59.5 °F 47.3 °F 30.2 in SSO 6.3 mph 12 mph 63.9% 0 in
05:29 59.4 °F 47.1 °F 30.2 in SSO 6.9 mph 12.3 mph 64% 0 in
05:34 59.4 °F 47.1 °F 30.2 in SSO 6.9 mph 13.5 mph 64% 0 in
05:39 59.4 °F 47.1 °F 30.2 in SSO 6.9 mph 14 mph 64% 0 in
05:44 59.4 °F 47.3 °F 30.2 in SSO 6.9 mph 12 mph 64% 0 in
05:49 59.5 °F 47.1 °F 30.2 in SSO 6.9 mph 12 mph 63.7% 0 in
05:54 59.7 °F 47.1 °F 30.2 in SSO 6.4 mph 11 mph 63% 0 in
05:59 59.7 °F 47.1 °F 30.2 in SSO 6.2 mph 8.1 mph 63% 0 in
06:04 59.7 °F 47.1 °F 30.2 in SSO 5.6 mph 8.1 mph 62.9% 0 in
06:09 59.9 °F 46.8 °F 30.2 in SSO 5.4 mph 8.1 mph 62% 0 in
06:14 60.1 °F 46.9 °F 30.2 in SSO 5.4 mph 11.5 mph 62% 0 in
06:19 59.9 °F 46.9 °F 30.2 in SO 5.4 mph 12 mph 62% 0 in
06:24 59.9 °F 46.8 °F 30.2 in SO 6 mph 10 mph 62.2% 0 in
06:29 59.7 °F 47.1 °F 30.2 in SSO 6.2 mph 10 mph 63% 0 in
06:34 59.5 °F 46.9 °F 30.2 in SO 4.8 mph 7 mph 63% 0 in
06:39 59.5 °F 46.9 °F 30.2 in SO 4.3 mph 8.1 mph 63% 0 in
06:44 59.4 °F 47.1 °F 30.2 in SO 4.1 mph 8 mph 63.8% 0 in
06:49 59.4 °F 47.1 °F 30.2 in SO 4 mph 7 mph 64% 0 in
06:54 59.4 °F 47.1 °F 30.2 in SO 4 mph 6.2 mph 64% 0 in
06:59 59.2 °F 46.9 °F 30.2 in SO 4 mph 6 mph 64% 0 in
07:04 59.2 °F 46.9 °F 30.2 in SO 3.3 mph 6 mph 64% 0 in
07:09 58.8 °F 46.8 °F 30.2 in SO 3.1 mph 5 mph 64% 0 in
07:14 58.8 °F 46.9 °F 30.2 in SO 2.3 mph 8.1 mph 64.7% 0 in
07:19 58.6 °F 46.9 °F 30.2 in SO 2 mph 8 mph 65% 0 in
07:24 58.6 °F 46.8 °F 30.2 in SO 3.5 mph 6.2 mph 65% 0 in
07:29 58.5 °F 46.8 °F 30.2 in OSO 4 mph 6 mph 65% 0 in
07:34 58.3 °F 46.9 °F 30.2 in OSO 2.8 mph 6 mph 65.9% 0 in
07:39 58.1 °F 46.9 °F 30.2 in OSO 2.4 mph 3 mph 66.3% 0 in
07:44 57.7 °F 46.9 °F 30.2 in OSO 0.7 mph 2 mph 67% 0 in
07:49 57.6 °F 46.9 °F 30.2 in Calm   2.3 mph 67.5% 0 in
07:54 57.6 °F 47.1 °F 30.2 in Calm   3.5 mph 68% 0 in
07:59 57.4 °F 47.1 °F 30.2 in Calm   3.5 mph 68.8% 0 in
08:04 57 °F 46.9 °F 30.2 in OSO 1.4 mph 3 mph 69% 0 in
08:09 57 °F 46.9 °F 30.2 in SO 1.8 mph 4.7 mph 69% 0 in
08:14 57.2 °F 47.1 °F 30.2 in SO 2.2 mph 5.2 mph 69% 0 in
08:19 57.4 °F 46.9 °F 30.2 in SO 2.4 mph 5.8 mph 68.2% 0 in
08:24 57.6 °F 47.1 °F 30.2 in SO 3.3 mph 6 mph 68% 0 in
08:29 57.6 °F 47.1 °F 30.2 in SO 3.6 mph 6 mph 68% 0 in
08:34 57.4 °F 46.9 °F 30.2 in SO 3.6 mph 6 mph 68% 0 in
08:39 57.4 °F 46.9 °F 30.2 in SO 3.6 mph 5 mph 68% 0 in
08:44 57.4 °F 46.9 °F 30.2 in OSO 3.2 mph 5 mph 68.2% 0 in
08:49 57.2 °F 47.1 °F 30.2 in SO 3.1 mph 5.8 mph 69% 0 in
08:54 57 °F 46.9 °F 30.2 in SO 3.1 mph 6 mph 69% 0 in
08:59 57.2 °F 47.1 °F 30.2 in SO 3.1 mph 5 mph 69.1% 0 in
09:04 57.4 °F 47.3 °F 30.2 in SSO 2.9 mph 6.9 mph 69% 0 in
09:09 57.7 °F 47.3 °F 30.2 in SO 2.9 mph 7 mph 68.4% 0 in
09:14 57.9 °F 47.3 °F 30.2 in SSO 3.7 mph 6.9 mph 67.7% 0 in
09:19 58.5 °F 47.3 °F 30.2 in SSO 4 mph 9.2 mph 66.7% 0 in
09:24 58.6 °F 47.3 °F 30.2 in SSO 5 mph 9.2 mph 65.8% 0 in
09:29 58.8 °F 47.1 °F 30.2 in SSO 5.4 mph 9 mph 65% 0 in
09:34 59.2 °F 47.5 °F 30.2 in SSO 5.3 mph 8.1 mph 65% 0 in
09:39 59.4 °F 47.5 °F 30.2 in SSO 5.2 mph 8.5 mph 64.5% 0 in
09:44 59.5 °F 47.5 °F 30.2 in SSO 5.3 mph 10 mph 64.2% 0 in
09:49 59.7 °F 47.5 °F 30.2 in SSO 5.4 mph 10.4 mph 64% 0 in
09:54 60.1 °F 47.7 °F 30.2 in SSO 6 mph 10 mph 63.6% 0 in
09:59 60.4 °F 47.7 °F 30.2 in SO 6.2 mph 8.1 mph 63% 0 in
10:04 60.6 °F 47.7 °F 30.2 in SO 5 mph 8.1 mph 62.3% 0 in
10:09 61 °F 47.8 °F 30.2 in SSO 4.7 mph 8 mph 62% 0 in
10:14 61.2 °F 47.7 °F 30.2 in SSO 5.1 mph 9.7 mph 61% 0 in
10:19 61.3 °F 47.8 °F 30.2 in SSO 5.2 mph 10 mph 61% 0 in
10:24 61.7 °F 48.2 °F 30.2 in Sur 4.3 mph 7.6 mph 61% 0 in
10:29 62.1 °F 48.2 °F 30.2 in SO 4 mph 10 mph 60.2% 0 in
10:34 62.2 °F 48.2 °F 30.2 in SSO 4.2 mph 10 mph 60.1% 0 in
10:39 62.4 °F 48.4 °F 30.2 in SO 4.3 mph 10 mph 59.9% 0 in
10:44 62.8 °F 48.6 °F 30.2 in SO 5 mph 9.2 mph 60% 0 in
10:49 63 °F 48.9 °F 30.2 in SSO 5.2 mph 9 mph 60.1% 0 in
10:54 63.1 °F 49.1 °F 30.2 in SSO 4.8 mph 8.5 mph 60% 0 in
10:59 63.5 °F 49.3 °F 30.2 in SSO 4.7 mph 9.7 mph 59.9% 0 in
11:04 63.7 °F 49.5 °F 30.2 in SSO 5.3 mph 10 mph 59.6% 0 in
11:09 64 °F 49.3 °F 30.2 in SO 5.4 mph 8.1 mph 58.7% 0 in
11:14 64.2 °F 49.1 °F 30.2 in OSO 4.6 mph 8 mph 58% 0 in
11:19 64.8 °F 49.5 °F 30.2 in OSO 4.3 mph 8.1 mph 57.7% 0 in
11:24 64.9 °F 49.3 °F 30.2 in SO 4.1 mph 10.4 mph 56.8% 0 in
11:29 65.3 °F 48.9 °F 30.2 in OSO 4 mph 10 mph 55.5% 0 in
11:34 65.5 °F 48.9 °F 30.2 in OSO 4.9 mph 11.4 mph 55% 0 in
11:39 65.7 °F 48.7 °F 30.2 in OSO 5.2 mph 12 mph 54.4% 0 in
11:44 65.8 °F 49.1 °F 30.2 in Oeste 6.1 mph 11 mph 54.6% 0 in
11:49 66.4 °F 49.3 °F 30.2 in ONO 6.4 mph 9 mph 54% 0 in
11:54 66.7 °F 48.9 °F 30.2 in OSO 4.7 mph 9 mph 52.9% 0 in
11:59 67.1 °F 49.3 °F 30.2 in OSO 4 mph 11.5 mph 52.9% 0 in
12:04 67.5 °F 49.5 °F 30.2 in Oeste 4.5 mph 12 mph 52.4% 0 in
12:09 67.5 °F 49.3 °F 30.2 in OSO 4.7 mph 9.2 mph 52% 0 in
12:14 67.6 °F 49.3 °F 30.2 in OSO 4.7 mph 9.2 mph 51.8% 0 in
12:19 67.8 °F 49.3 °F 30.2 in SO 4.7 mph 9 mph 51.4% 0 in
12:24 67.8 °F 49.3 °F 30.2 in OSO 4.2 mph 8 mph 51.4% 0 in
12:29 68.4 °F 49.5 °F 30.2 in SSE 4 mph 7.6 mph 51% 0 in
12:34 68.5 °F 49.6 °F 30.2 in Sur 3.7 mph 8.1 mph 50.8% 0 in
12:39 68.7 °F 49.6 °F 30.2 in SSO 3.6 mph 8.1 mph 50.4% 0 in
12:44 69.1 °F 49.8 °F 30.2 in Oeste 4.1 mph 8.1 mph 50.3% 0 in
12:49 69.3 °F 49.8 °F 30.2 in SO 4.3 mph 9.2 mph 50% 0 in
12:54 69.3 °F 49.8 °F 30.2 in SO 4.6 mph 10 mph 50% 0 in
12:59 69.3 °F 49.8 °F 30.2 in SSO 4.7 mph 10.4 mph 50% 0 in
13:04 69.4 °F 49.8 °F 30.2 in OSO 5.1 mph 10 mph 49.8% 0 in
13:09 69.4 °F 49.5 °F 30.2 in OSO 5.2 mph 8.1 mph 49% 0 in
13:14 69.8 °F 49.8 °F 30.2 in SSO 4.8 mph 10.4 mph 49.3% 0 in
13:19 70 °F 50.2 °F 30.2 in Sur 4.7 mph 10 mph 49.4% 0 in
13:24 70.3 °F 50.2 °F 30.2 in SSE 5.2 mph 8 mph 48.8% 0 in
13:29 70.5 °F 50.4 °F 30.2 in SO 5.4 mph 8.1 mph 48.7% 0 in
13:34 70.9 °F 50 °F 30.2 in Sur 4.6 mph 8 mph 47.6% 0 in
13:39 71.2 °F 50.4 °F 30.2 in SSO 4.3 mph 8.1 mph 47.8% 0 in
13:44 71.6 °F 50.2 °F 30.2 in ONO 3.8 mph 9.2 mph 46.7% 0 in
13:49 72 °F 50 °F 30.2 in NO 3.6 mph 9 mph 46% 0 in
13:54 72 °F 50 °F 30.2 in OSO 4.4 mph 10.7 mph 45.9% 0 in
13:59 72 °F 49.8 °F 30.2 in SO 4.7 mph 11 mph 45.6% 0 in
14:04 72 °F 50 °F 30.2 in SSO 4.7 mph 9.2 mph 46% 0 in
14:09 72.1 °F 50.2 °F 30.2 in SO 4.7 mph 11.8 mph 46% 0 in
14:14 72.5 °F 50.5 °F 30.1 in SO 4.2 mph 12 mph 45.8% 0 in
14:19 73 °F 50.4 °F 30.1 in NNO 4 mph 6.2 mph 44.9% 0 in
14:24 73.2 °F 50 °F 30.1 in SO 3.4 mph 8.5 mph 44.2% 0 in
14:29 73 °F 50.2 °F 30.1 in OSO 3.1 mph 9.2 mph 44.6% 0 in
14:34 73 °F 50.4 °F 30.1 in NO 4.3 mph 9.2 mph 45% 0 in
14:39 73.2 °F 50.5 °F 30.1 in NNO 4.7 mph 9 mph 45% 0 in
14:44 73.6 °F 50.7 °F 30.1 in SO 3.5 mph 6.9 mph 44.6% 0 in
14:49 73.2 °F 50.4 °F 30.1 in OSO 3.1 mph 8.5 mph 44.5% 0 in
14:54 73.2 °F 50.7 °F 30.1 in SSO 3.7 mph 9 mph 45.1% 0 in
14:59 73.2 °F 50.5 °F 30.1 in SSO 4 mph 7 mph 45% 0 in
15:04 73.4 °F 50.7 °F 30.1 in Sur 2.8 mph 7.4 mph 44.8% 0 in
15:09 73.8 °F 50.4 °F 30.1 in SE 2.4 mph 7 mph 44% 0 in
15:14 73.8 °F 50.7 °F 30.1 in ENE 3.6 mph 6 mph 44.3% 0 in
15:19 73.9 °F 50.5 °F 30.1 in SSE 4 mph 6 mph 44% 0 in
15:24 74.1 °F 50.9 °F 30.1 in Este 2.9 mph 5 mph 44% 0 in
15:29 74.3 °F 50.5 °F 30.1 in SE 2.4 mph 5.8 mph 43.3% 0 in
15:34 74.3 °F 50.4 °F 30.1 in ESE 2.7 mph 6.4 mph 43.1% 0 in
15:39 73.9 °F 50.4 °F 30.1 in NE 2.9 mph 6.9 mph 43.4% 0 in
15:44 73.8 °F 50.5 °F 30.1 in NE 3.4 mph 7 mph 43.9% 0 in
15:49 73.8 °F 50.5 °F 30.1 in ENE 3.6 mph 6 mph 44% 0 in
15:54 73.9 °F 50.5 °F 30.1 in SE 3.1 mph 6.9 mph 43.9% 0 in
15:59 73.9 °F 50.4 °F 30.1 in SSO 2.9 mph 7 mph 43.4% 0 in
16:04 74.1 °F 50.7 °F 30.1 in Oeste 3 mph 6 mph 43.8% 0 in
16:09 74.7 °F 50.5 °F 30.1 in NNO 3.1 mph 6 mph 43% 0 in
16:14 74.8 °F 50.4 °F 30.1 in Oeste 2.2 mph 5.9 mph 42% 0 in
16:19 75 °F 49.8 °F 30.1 in ONO 1.8 mph 6 mph 41% 0 in
16:24 75.4 °F 50.2 °F 30.1 in North 1.9 mph 5 mph 41.2% 0 in
16:29 75.7 °F 50.4 °F 30.1 in ESE 2 mph 4.7 mph 41% 0 in
16:34 75.9 °F 50.4 °F 30.1 in Sur 2 mph 5.2 mph 40.8% 0 in
16:39 76.1 °F 50.7 °F 30.1 in SO 2 mph 5 mph 41% 0 in
16:44 76.5 °F 50.2 °F 30.1 in SSE 2.3 mph 5 mph 40% 0 in
16:49 76.5 °F 50.2 °F 30.1 in SE 2.4 mph 5 mph 39.9% 0 in
16:54 76.3 °F 50.5 °F 30.1 in SE 2.4 mph 6.2 mph 40.5% 0 in
16:59 75.7 °F 50.5 °F 30.1 in Este 2.4 mph 8.1 mph 41.3% 0 in
17:04 75.4 °F 50.7 °F 30.1 in ESE 3.9 mph 8.1 mph 42% 0 in
17:09 75 °F 50.9 °F 30.1 in ESE 4.3 mph 8.5 mph 42.6% 0 in
17:14 75 °F 52 °F 30.1 in ESE 5.1 mph 11.5 mph 44.7% 0 in
17:19 74.7 °F 52.9 °F 30.1 in ESE 5.4 mph 12 mph 46.4% 0 in
17:24 74.7 °F 53.2 °F 30.1 in ESE 6.9 mph 11.5 mph 47.2% 0 in
17:29 74.7 °F 53.4 °F 30.1 in ESE 7.4 mph 12 mph 47.7% 0 in
17:34 74.5 °F 53.6 °F 30.1 in ESE 6.6 mph 12 mph 47.9% 0 in
17:39 74.3 °F 53.4 °F 30.1 in ESE 6.4 mph 12 mph 48% 0 in
17:44 74.1 °F 53.2 °F 30.1 in SE 6.4 mph 12 mph 48.1% 0 in
17:49 73.9 °F 53.6 °F 30.1 in SE 6.4 mph 10.4 mph 48.9% 0 in
17:54 73.9 °F 53.4 °F 30.1 in SE 6.3 mph 10.4 mph 49% 0 in
17:59 73.8 °F 53.6 °F 30.1 in ESE 6.2 mph 10.4 mph 49.3% 0 in
18:04 73.8 °F 54 °F 30.1 in ESE 5.6 mph 7.4 mph 50% 0 in
18:09 73.8 °F 54 °F 30.1 in SSE 5.4 mph 9.7 mph 50% 0 in
18:14 73.8 °F 54 °F 30.1 in SSE 5.4 mph 10 mph 50% 0 in
18:19 73.6 °F 53.8 °F 30.1 in SE 5.4 mph 9 mph 50% 0 in
18:24 73.6 °F 54 °F 30.1 in SE 4.9 mph 8 mph 50.2% 0 in
18:29 73.6 °F 54.1 °F 30.1 in SSE 4.7 mph 7 mph 50.7% 0 in
18:34 73.6 °F 54 °F 30.1 in SSE 4.2 mph 7 mph 50.3% 0 in
18:39 73.8 °F 54.1 °F 30.1 in Sur 4 mph 6.9 mph 50.3% 0 in
18:44 73.8 °F 54 °F 30.1 in SSE 3.4 mph 7 mph 50.2% 0 in
18:49 73.6 °F 54 °F 30.1 in Sur 3.1 mph 6.9 mph 50.5% 0 in
18:54 73 °F 54 °F 30.1 in SSO 3.8 mph 8.1 mph 51% 0 in
18:59 72.9 °F 53.6 °F 30.1 in SSO 4 mph 8.1 mph 51% 0 in
19:04 72.5 °F 53.4 °F 30.1 in Sur 4.2 mph 8 mph 51% 0 in
19:09 72.1 °F 53.6 °F 30.1 in Sur 4.3 mph 6.2 mph 51.9% 0 in
19:14 72 °F 53.4 °F 30.1 in Sur 4.1 mph 6.9 mph 52% 0 in
19:19 71.8 °F 53.4 °F 30.1 in SSO 4 mph 7 mph 52.5% 0 in
19:24 71.4 °F 53.4 °F 30.1 in SSO 3.7 mph 6 mph 53% 0 in
19:29 71.4 °F 53.4 °F 30.1 in SSO 3.6 mph 5 mph 53.2% 0 in
19:34 71.2 °F 53.8 °F 30.1 in SSE 2.3 mph 5 mph 54.3% 0 in
19:39 71.1 °F 54.1 °F 30.1 in Este 1.8 mph 5 mph 55.3% 0 in
19:44 70.7 °F 54.1 °F 30.1 in Este 1.8 mph 4 mph 56% 0 in
19:49 70.3 °F 53.8 °F 30.1 in Este 1.8 mph 3 mph 56% 0 in
19:54 70 °F 54 °F 30.1 in ESE 0.5 mph 7.4 mph 57% 0 in
19:59 69.4 °F 53.8 °F 30.1 in Calm   7 mph 57.3% 0 in
20:04 69.3 °F 53.4 °F 30.1 in SO 3.1 mph 9.7 mph 57.2% 0 in
20:09 68.7 °F 53.2 °F 30.1 in SO 4 mph 10 mph 57.5% 0 in
20:14 68.5 °F 53.2 °F 30.1 in SO 5 mph 9 mph 58% 0 in
20:19 68.4 °F 53.1 °F 30.1 in SO 5.4 mph 7.4 mph 58.2% 0 in
20:24 68.2 °F 53.1 °F 30.1 in SSO 4.6 mph 7 mph 58.8% 0 in
20:29 67.8 °F 53.1 °F 30.1 in SSO 4.3 mph 7 mph 59% 0 in
20:34 67.6 °F 53.1 °F 30.1 in SE 4.3 mph 7 mph 59.4% 0 in
20:39 67.5 °F 53.4 °F 30.1 in SE 4.3 mph 6 mph 60.6% 0 in
20:44 67.3 °F 53.6 °F 30.1 in SE 3.4 mph 5.4 mph 61.4% 0 in
20:49 66.9 °F 53.6 °F 30.1 in ENE 3.1 mph 6 mph 62% 0 in
20:54 66.9 °F 53.4 °F 30.1 in ENE 3 mph 6 mph 62% 0 in
20:59 66.7 °F 53.4 °F 30.1 in ENE 2.9 mph 4.6 mph 62% 0 in
21:04 66.6 °F 53.2 °F 30.1 in ENE 2.2 mph 5 mph 62.3% 0 in
21:09 66.4 °F 53.2 °F 30.1 in ENE 2 mph 3 mph 62.4% 0 in
21:14 66.4 °F 52.9 °F 30.1 in ESE 1.6 mph 4.3 mph 61.9% 0 in
21:19 66.4 °F 52.5 °F 30.1 in SSE 1.4 mph 5 mph 61% 0 in
21:24 66.4 °F 52.2 °F 30.1 in SSO 2.1 mph 5 mph 60.3% 0 in
21:29 66.4 °F 52.2 °F 30.1 in SSE 2.4 mph 5.2 mph 60% 0 in
21:34 66.6 °F 52.2 °F 30.1 in SSE 2.9 mph 5 mph 60% 0 in
21:39 66.4 °F 52.3 °F 30.1 in SSE 3.1 mph 5 mph 60.7% 0 in
21:44 66.4 °F 52.5 °F 30.1 in SSE 2.2 mph 3 mph 61.2% 0 in
21:49 66.2 °F 52.7 °F 30.1 in ESE 1.8 mph 3.5 mph 62% 0 in
21:54 65.8 °F 52.7 °F 30.1 in Este 1.5 mph 3 mph 62.4% 0 in
21:59 65.7 °F 52.9 °F 30.1 in Este 1.4 mph 2 mph 63% 0 in
22:04 65.7 °F 52.9 °F 30.1 in Este 0.3 mph   63.4% 0 in
22:09 65.5 °F 52.9 °F 30.1 in Calm   2.4 mph 64% 0 in
22:14 65.1 °F 53.1 °F 30.1 in Calm   2.3 mph 64.8% 0 in
22:19 65.1 °F 53.1 °F 30.1 in Calm   2 mph 65% 0 in
22:24 64.9 °F 53.1 °F 30.1 in Calm   1.4 mph 65.5% 0 in
22:29 64.9 °F 53.2 °F 30.1 in Calm   3.1 mph 66% 0 in
22:34 64.8 °F 53.1 °F 30.1 in Calm   3.5 mph 66% 0 in
22:39 64.8 °F 53.2 °F 30.1 in Calm   3.6 mph 66.2% 0 in
22:44 64.6 °F 53.2 °F 30.1 in ESE 1.5 mph 4 mph 67% 0 in
22:49 64.2 °F 53.2 °F 30.1 in ESE 2 mph 3 mph 67.5% 0 in
22:54 64 °F 53.2 °F 30.1 in ESE 0.5 mph 2.9 mph 68% 0 in
22:59 63.7 °F 53.2 °F 30.1 in Calm   3 mph 68.9% 0 in
23:04 63.5 °F 53.1 °F 30.1 in ESE 1.1 mph 2 mph 69% 0 in
23:09 63.1 °F 53.2 °F 30.1 in SE 1.4 mph 4.7 mph 69.9% 0 in
23:14 63 °F 53.4 °F 30.1 in SE 1.7 mph 5 mph 70.9% 0 in
23:19 62.8 °F 53.2 °F 30.1 in SE 1.8 mph 4 mph 71% 0 in
23:24 62.8 °F 53.4 °F 30.1 in SE 0.5 mph 1.2 mph 72% 0 in
23:29 62.4 °F 53.2 °F 30.1 in Calm   2.4 mph 72% 0 in
23:34 62.4 °F 53.4 °F 30.1 in Calm   5.8 mph 72.2% 0 in
23:39 62.4 °F 53.2 °F 30.1 in Calm   6 mph 72% 0 in
23:44 62.4 °F 53.2 °F 30.1 in SO 2.2 mph 6 mph 71.8% 0 in
23:49 62.4 °F 52.9 °F 30.1 in SO 3.1 mph 6.2 mph 71% 0 in
23:54 62.4 °F 52.7 °F 30.1 in SO 3.8 mph 6.2 mph 70.3% 0 in
23:59 62.2 °F 52.5 °F 30.1 in SO 4 mph 6.9 mph 70.1% 0 in
Murcia-Puente Tocinos, España
Compliments of Weather Underground - 3 mb

La estación de MeteoMurcia.com, publica sus datos en los siguientes proyectos:

Weather Underground PWS IMURCIAP2 Meteoclimatic www.awekas.at

W3Counter
Web Analytics